This is the latest recevied weather packets stored in our database for station/object K4KMJ. If no packets are shown the sender has not sent any weather packets the latest 10 day(s).
| Time | Temp. | Humidity | Pressure | Rain* | Wind** | Luminosity | Snow |
|---|---|---|---|---|---|---|---|
| 1777895826 | 20.56° C | 95% | 1018.8 hPa | 0 mm | - | 116 W/m² | - |
| 1777895523 | 20° C | 96% | 1018.7 hPa | 0 mm | - | 105 W/m² | - |
| 1777895220 | 18.89° C | 96% | 1018.6 hPa | 0 mm | - | 92 W/m² | - |
| 1777894917 | 18.89° C | 96% | 1018.4 hPa | 0 mm | - | 80 W/m² | - |
| 1777894614 | 18.89° C | 97% | 1018.6 hPa | 0 mm | - | 70 W/m² | - |
| 1777894312 | 17.78° C | 97% | 1018.5 hPa | 0 mm | - | 61 W/m² | - |
| 1777894009 | 17.78° C | 98% | 1018.7 hPa | 0 mm | - | 53 W/m² | - |
| 1777893705 | 17.22° C | 98% | 1018.2 hPa | 0 mm | - | 45 W/m² | - |
| 1777893401 | 16.67° C | 98% | 1018.3 hPa | 0 mm | - | 37 W/m² | - |
| 1777893097 | 16.11° C | 98% | 1018.3 hPa | 0 mm | - | 31 W/m² | - |
| 1777892795 | 15.56° C | 98% | 1018.4 hPa | 0 mm | - | 24 W/m² | - |
| 1777892491 | 15° C | 98% | 1018.1 hPa | 0 mm | - | 18 W/m² | - |
| 1777892186 | 15° C | 98% | 1018.2 hPa | 0 mm | - | 12 W/m² | - |
| 1777891883 | 15° C | 98% | 1018.3 hPa | 0 mm | - | 9 W/m² | - |
| 1777891581 | 15° C | 98% | 1018 hPa | 0 mm | - | 5 W/m² | - |
| 1777891277 | 15° C | 98% | 1017.8 hPa | 0 mm | - | 3 W/m² | - |
| 1777890972 | 15° C | 98% | 1017.7 hPa | 0 mm | - | 1 W/m² | - |
| 1777890667 | 15° C | 98% | 1018 hPa | 0 mm | - | 1 W/m² | - |
| 1777890363 | 15° C | 98% | 1017.9 hPa | 0 mm | - | 0 W/m² | - |
| 1777890059 | 15° C | 98% | 1018.1 hPa | 0 mm | - | 0 W/m² | - |
| 1777889757 | 15° C | 98% | 1017.9 hPa | 0 mm | - | 0 W/m² | - |
| 1777889455 | 15° C | 98% | 1017.9 hPa | 0 mm | - | 0 W/m² | - |
| 1777889152 | 15° C | 98% | 1017.7 hPa | 0 mm | - | 0 W/m² | - |
| 1777888850 | 15° C | 98% | 1017.7 hPa | 0 mm | - | 0 W/m² | - |
| 1777888545 | 15° C | 98% | 1018 hPa | 0 mm | - | 0 W/m² | - |
* Rain latest hour (hover to see other rain measurements)
** Current wind speed in m/s (hover to see current wind gust speed)